EDDM/MUC METAR and TAF weather

Enter ICAO airport designator
Station Type Date Time Source
EDDM METAR 2022/10/01 07:20 UTC NOAA

EDDM 010720Z AUTO 20006KT CAVOK 10/08 Q1014 NOSIG


Station Type Date Time Source
EDDM Decoded METAR 2022/10/01 07:20 UTC NOAA

Munchen, Germany (EDDM) 48-21N 011-47E
Oct 01, 2022 - 03:20 AM EDT / 2022.10.01 0720 UTC
Wind: from the SSW (200 degrees) at 7 MPH (6 KT):0
Visibility: greater than 7 mile(s):0
Temperature: 50 F (10 C)
Dew Point: 46 F (8 C)
Relative Humidity: 87%
Pressure (altimeter): 29.94 in. Hg (1014 hPa)
ob: EDDM 010720Z AUTO 20006KT CAVOK 10/08 Q1014 NOSIG
cycle: 7

Station Type Date Time Source
EDDM TAF 2022/10/01 06:51 UTC NOAA

TAF COR TAF COR EDDM 010545Z 0106/0212 22004KT 9000 NSC
BECMG 0108/0110 24010KT
TEMPO 0111/0117 25015G25KT RA
TEMPO 0120/0124 4500 SHRA BKN015CB PROB30
TEMPO 0206/0212 RA

Example: see airport list